Dover, Missouri
Current Conditions -  °F | °C
As of 7:15 AM on Wednesday 22 Oct 2014 (Local Time) from KRCM Reporting Station
Scattered Clouds Scattered Clouds  
Wind Chill: 44°   Ceiling: Unl
Heat Index: 46°   Visibility: 7mi
Dew Point: 43°   Wind: 5mph
Humidity: 87%   Direction: 90°E
Pressure: 30.22"   Gusts: NA
Location:  39.19°N, 93.69°W
Report Text: KRCM 221215Z AUTO 09004KT 7SM SCT070 08/06 A3022 RMK AO2
Loading
Personal Weather Stations






























Interactive Weather Map New forecast layout! Learn more

10-Day Weather Forecast

Advertisements
Track Severe Weather on mobile